Time;durP1;ratioP1;P1;durP2;ratioP2;P2;SDS_P1;SDS_P2;PMS_P1;PMS_P2;Temp;Humidity;BMP_temperature;BMP_pressure;BME280_temperature;BME280_humidity;BME280_pressure;Samples;Min_cycle;Max_cycle;Signal;HPM_P1;HPM_P2
2021/08/04 00:00:34;;;;;;;4.35;3.13;;;27.60;27.20;;;;;;21164444;28;20058;-63
2021/08/04 00:10:36;;;;;;;9.02;7.18;;;27.60;27.70;;;;;;21164395;28;20051;-72
2021/08/04 00:20:37;;;;;;;4.40;3.38;;;27.40;28.50;;;;;;21195682;28;20048;-63
2021/08/04 00:30:39;;;;;;;3.80;2.85;;;27.40;29.00;;;;;;21248633;28;20407;-73
2021/08/04 00:40:42;;;;;;;3.65;2.80;;;27.30;30.10;;;;;;21251267;28;20054;-69
2021/08/04 00:50:44;;;;;;;6.97;2.70;;;27.30;30.80;;;;;;21251889;28;20054;-74
2021/08/04 01:00:55;;;;;;;3.78;2.55;;;27.20;31.80;;;;;;21256669;27;20077;-73
2021/08/04 01:10:58;;;;;;;3.97;2.97;;;27.00;32.90;;;;;;21262393;27;20043;-64
2021/08/04 01:20:59;;;;;;;3.80;2.15;;;26.90;34.50;;;;;;21260588;27;20054;-69
2021/08/04 01:31:06;;;;;;;5.22;2.75;;;26.70;35.50;;;;;;21258711;27;20055;-67
2021/08/04 01:41:16;;;;;;;4.30;2.60;;;26.70;36.40;;;;;;21259790;27;20105;-67
2021/08/04 01:51:25;;;;;;;4.50;2.63;;;26.60;37.30;;;;;;21259112;27;20043;-69
2021/08/04 02:01:36;;;;;;;2.78;2.03;;;26.50;37.90;;;;;;21258545;27;20047;-71
2021/08/04 02:12:07;;;;;;;4.30;2.25;;;26.40;38.50;;;;;;21257560;27;20046;-67
2021/08/04 02:22:25;;;;;;;4.35;2.67;;;26.40;38.80;;;;;;21255611;27;20051;-63
2021/08/04 02:32:27;;;;;;;3.50;2.20;;;26.30;39.50;;;;;;21254039;27;20074;-65
2021/08/04 02:42:29;;;;;;;5.10;2.40;;;26.20;39.90;;;;;;21253093;27;20491;-66
2021/08/04 02:52:31;;;;;;;4.00;2.42;;;26.20;40.20;;;;;;21253051;27;20085;-64
2021/08/04 03:02:34;;;;;;;3.45;2.42;;;26.10;40.50;;;;;;21252799;27;20058;-65
2021/08/04 03:12:37;;;;;;;6.13;2.85;;;26.00;40.90;;;;;;21252643;27;20082;-73
2021/08/04 03:22:47;;;;;;;3.30;2.75;;;25.90;41.40;;;;;;21253930;27;20114;-74
2021/08/04 03:32:50;;;;;;;5.15;2.78;;;25.80;41.90;;;;;;21257273;27;20061;-73
2021/08/04 03:42:56;;;;;;;3.38;2.63;;;25.80;41.70;;;;;;21293591;27;20043;-66
2021/08/04 03:52:59;;;;;;;3.72;3.08;;;25.60;41.60;;;;;;21263404;27;20078;-70
2021/08/04 04:03:02;;;;;;;4.57;3.30;;;25.60;42.30;;;;;;21250392;27;20047;-66
2021/08/04 04:13:05;;;;;;;4.82;3.17;;;25.50;43.50;;;;;;21247928;28;20047;-67
2021/08/04 04:23:10;;;;;;;7.10;3.55;;;25.30;44.20;;;;;;21247344;28;20051;-69
2021/08/04 04:33:12;;;;;;;4.50;3.40;;;25.20;45.00;;;;;;21228009;28;20136;-65
2021/08/04 04:43:14;;;;;;;4.78;3.17;;;25.20;45.80;;;;;;21258532;27;20099;-63
2021/08/04 04:53:18;;;;;;;;;;;25.10;46.30;;;;;;21262602;27;20141;-65
2021/08/04 05:03:22;;;;;;;3.78;3.08;;;24.90;46.50;;;;;;21263663;27;20267;-69
2021/08/04 05:13:24;;;;;;;;;;;24.90;46.90;;;;;;21261740;27;20043;-68
2021/08/04 05:23:26;;;;;;;3.70;2.23;;;24.80;46.60;;;;;;21259476;27;20040;-65
2021/08/04 05:33:29;;;;;;;3.75;2.30;;;24.90;46.70;;;;;;21259102;27;20039;-64
2021/08/04 05:43:31;;;;;;;4.22;2.38;;;24.90;46.60;;;;;;21264596;27;20487;-67
2021/08/04 05:53:35;;;;;;;4.20;2.50;;;24.70;47.40;;;;;;21271916;27;20528;-70
2021/08/04 06:03:37;;;;;;;4.30;2.00;;;24.40;48.30;;;;;;21257225;27;20092;-66
2021/08/04 06:13:38;;;;;;;4.88;2.42;;;24.50;48.10;;;;;;21257189;27;20095;-65
2021/08/04 06:23:39;;;;;;;5.10;1.90;;;24.50;48.10;;;;;;21256566;27;20058;-71
2021/08/04 06:33:40;;;;;;;3.30;1.70;;;24.60;48.00;;;;;;21255681;27;20131;-66
2021/08/04 06:43:40;;;;;;;3.50;1.80;;;24.60;47.90;;;;;;21236099;27;20082;-72
2021/08/04 06:53:41;;;;;;;5.72;1.90;;;24.80;47.50;;;;;;21291639;27;20049;-71
2021/08/04 07:03:42;;;;;;;4.03;1.67;;;25.40;46.10;;;;;;21278768;27;20196;-66
2021/08/04 07:13:43;;;;;;;5.53;1.73;;;26.10;44.70;;;;;;21252469;27;20051;-65
2021/08/04 07:23:46;;;;;;;2.43;1.30;;;26.50;43.70;;;;;;21250878;27;20498;-63
2021/08/04 07:33:47;;;;;;;2.67;1.30;;;26.80;43.20;;;;;;21249644;27;20498;-74
2021/08/04 07:43:49;;;;;;;4.23;1.20;;;27.50;41.90;;;;;;21231034;27;20043;-66
2021/08/04 07:53:50;;;;;;;6.68;2.05;;;28.10;40.50;;;;;;21259889;27;20491;-64
2021/08/04 08:03:51;;;;;;;5.28;1.25;;;28.40;39.90;;;;;;21262304;27;20455;-75
2021/08/04 08:13:51;;;;;;;2.33;1.43;;;28.70;39.20;;;;;;21254022;27;20039;-73
2021/08/04 08:23:59;;;;;;;2.45;1.35;;;28.80;38.80;;;;;;21265896;27;20700;-72
2021/08/04 08:34:04;;;;;;;3.58;1.50;;;28.60;38.80;;;;;;21268446;27;20119;-75
2021/08/04 08:44:07;;;;;;;3.20;1.70;;;29.20;38.00;;;;;;21265400;27;20058;-73
2021/08/04 08:54:09;;;;;;;2.97;1.73;;;29.30;37.00;;;;;;21263662;27;20125;-75
2021/08/04 09:04:15;;;;;;;3.17;2.05;;;29.40;36.80;;;;;;21265234;27;20055;-71
2021/08/04 09:14:27;;;;;;;3.67;2.35;;;29.70;36.30;;;;;;21266081;27;20480;-69
2021/08/04 09:24:35;;;;;;;3.65;2.10;;;29.90;35.90;;;;;;21308530;27;20063;-65
2021/08/04 09:34:39;;;;;;;6.13;2.13;;;30.10;35.50;;;;;;21287616;27;20100;-65
2021/08/04 09:44:57;;;;;;;6.72;1.88;;;30.00;35.50;;;;;;21240856;27;20186;-65
2021/08/04 09:55:20;;;;;;;4.63;2.05;;;30.40;35.10;;;;;;21258458;27;20452;-65
2021/08/04 10:05:24;;;;;;;4.88;1.77;;;30.30;35.80;;;;;;21259296;27;20483;-69
2021/08/04 10:15:27;;;;;;;4.57;2.08;;;30.20;36.00;;;;;;21255407;27;20047;-70
2021/08/04 10:25:29;;;;;;;3.78;2.15;;;30.10;36.20;;;;;;21253425;27;20062;-69
2021/08/04 10:35:31;;;;;;;3.30;2.35;;;30.10;36.10;;;;;;21252655;27;20043;-67
2021/08/04 10:45:34;;;;;;;4.60;2.03;;;30.10;36.00;;;;;;21233819;27;20062;-66
2021/08/04 10:56:03;;;;;;;4.03;1.92;;;30.10;35.90;;;;;;21251371;27;20043;-72
2021/08/04 11:06:06;;;;;;;2.65;2.03;;;29.60;36.20;;;;;;21246561;27;20411;-68
2021/08/04 11:16:28;;;;;;;5.22;1.70;;;29.60;36.60;;;;;;21252377;27;20043;-70
2021/08/04 11:26:37;;;;;;;2.67;1.58;;;29.80;36.00;;;;;;21232418;27;20091;-68
2021/08/04 11:36:39;;;;;;;4.23;1.27;;;30.00;35.80;;;;;;21250163;27;20414;-65
2021/08/04 11:47:06;;;;;;;4.93;1.40;;;29.80;35.70;;;;;;21248880;27;20091;-65
2021/08/04 11:57:10;;;;;;;2.03;0.93;;;30.10;35.00;;;;;;21248827;27;20043;-64
2021/08/04 12:07:12;;;;;;;6.10;3.63;;;30.10;34.20;;;;;;21247233;27;20047;-69
2021/08/04 12:17:20;;;;;;;3.65;1.90;;;30.20;33.70;;;;;;21244494;28;20567;-65
2021/08/04 12:27:29;;;;;;;1.98;1.13;;;30.40;32.70;;;;;;21241385;28;20079;-67
2021/08/04 12:37:32;;;;;;;4.28;3.30;;;30.40;32.60;;;;;;21248792;28;20047;-66
2021/08/04 12:47:33;;;;;;;3.33;1.98;;;30.60;31.60;;;;;;21246666;28;20051;-65
2021/08/04 12:57:34;;;;;;;2.75;1.83;;;30.60;31.20;;;;;;21245237;27;20053;-66
2021/08/04 13:07:43;;;;;;;1.83;0.88;;;30.60;30.40;;;;;;21263233;27;20074;-71
2021/08/04 13:17:55;;;;;;;2.45;1.48;;;30.70;30.00;;;;;;21262045;27;20407;-66
2021/08/04 13:28:07;;;;;;;2.30;1.73;;;30.90;29.50;;;;;;21242003;27;20049;-68
2021/08/04 13:38:08;;;;;;;1.88;1.17;;;30.90;29.30;;;;;;21240911;27;20058;-68
2021/08/04 13:48:10;;;;;;;2.17;1.10;;;31.00;28.90;;;;;;21259091;27;20047;-67
2021/08/04 13:58:12;;;;;;;2.08;1.42;;;31.10;28.50;;;;;;21259484;27;20510;-68
2021/08/04 14:08:15;;;;;;;2.72;2.10;;;31.10;27.50;;;;;;21257028;27;20138;-69
2021/08/04 14:18:17;;;;;;;2.30;1.70;;;31.20;27.60;;;;;;21236106;27;20051;-69
2021/08/04 14:28:19;;;;;;;3.45;2.40;;;31.10;27.20;;;;;;21254588;27;20453;-66
2021/08/04 14:38:20;;;;;;;6.80;4.00;;;31.10;26.90;;;;;;21236407;27;20051;-69
2021/08/04 14:48:22;;;;;;;5.80;3.08;;;31.20;24.50;;;;;;21235170;27;20487;-71
2021/08/04 14:58:24;;;;;;;3.08;2.42;;;31.20;25.20;;;;;;21252465;27;20047;-67
2021/08/04 15:08:26;;;;;;;3.50;2.90;;;31.40;25.40;;;;;;21251423;27;20047;-67
2021/08/04 15:18:28;;;;;;;3.90;2.67;;;31.30;24.50;;;;;;21262610;27;20087;-66
2021/08/04 15:28:32;;;;;;;3.60;3.00;;;31.40;25.20;;;;;;21248395;27;20456;-68
2021/08/04 15:38:36;;;;;;;3.10;2.55;;;31.40;25.50;;;;;;21253546;27;20502;-71
2021/08/04 15:48:38;;;;;;;4.60;3.45;;;31.40;24.90;;;;;;21229833;27;20523;-69
2021/08/04 15:58:39;;;;;;;3.72;3.15;;;31.40;25.90;;;;;;21251237;27;20057;-65
2021/08/04 16:08:41;;;;;;;3.50;2.88;;;31.50;25.40;;;;;;21249845;27;20051;-70
2021/08/04 16:18:43;;;;;;;3.35;2.42;;;31.40;25.60;;;;;;21240167;28;20058;-67
2021/08/04 16:28:44;;;;;;;3.33;2.78;;;31.40;26.50;;;;;;21282896;28;20138;-70
2021/08/04 16:38:46;;;;;;;4.88;2.67;;;31.40;26.20;;;;;;21304983;27;20054;-64
2021/08/04 16:48:48;;;;;;;5.18;3.08;;;31.30;25.90;;;;;;21291748;27;20046;-66
2021/08/04 16:58:50;;;;;;;3.80;2.67;;;31.30;25.40;;;;;;21267110;27;20122;-66
2021/08/04 17:08:52;;;;;;;2.80;2.50;;;31.40;24.50;;;;;;21259078;27;20137;-68
2021/08/04 17:18:54;;;;;;;3.33;2.30;;;31.30;24.40;;;;;;21258323;27;20051;-67
2021/08/04 17:28:56;;;;;;;3.00;2.55;;;31.30;23.90;;;;;;21256269;27;20055;-66
2021/08/04 17:38:59;;;;;;;2.15;1.77;;;31.20;24.00;;;;;;21256234;27;20051;-65
2021/08/04 17:49:00;;;;;;;2.55;1.95;;;31.10;24.00;;;;;;21238916;27;20043;-70
2021/08/04 17:59:02;;;;;;;3.70;1.88;;;31.00;24.40;;;;;;21259890;27;20054;-71
2021/08/04 18:09:04;;;;;;;2.55;1.90;;;30.90;24.70;;;;;;21259795;27;20149;-68
2021/08/04 18:19:06;;;;;;;2.72;1.58;;;30.80;25.10;;;;;;21239742;27;20048;-67
2021/08/04 18:29:11;;;;;;;2.33;1.48;;;30.70;25.10;;;;;;21264236;27;20388;-68
2021/08/04 18:39:14;;;;;;;5.90;1.60;;;30.60;25.30;;;;;;21240679;27;20055;-68
2021/08/04 18:49:21;;;;;;;2.22;1.60;;;30.40;25.50;;;;;;21241805;27;20047;-70
2021/08/04 18:59:23;;;;;;;2.33;1.75;;;30.30;25.90;;;;;;21256792;27;20458;-69
2021/08/04 19:09:25;;;;;;;2.60;1.80;;;30.20;26.10;;;;;;21254784;27;20495;-67
2021/08/04 19:19:27;;;;;;;2.75;2.05;;;30.00;26.50;;;;;;21248527;27;20051;-67
2021/08/04 19:29:29;;;;;;;2.00;1.33;;;29.80;27.00;;;;;;21245550;27;20093;-69
2021/08/04 19:39:31;;;;;;;3.95;1.77;;;29.70;27.30;;;;;;21243400;28;20051;-71
2021/08/04 19:49:33;;;;;;;3.25;2.03;;;29.50;27.60;;;;;;21242543;28;20094;-68
2021/08/04 19:59:35;;;;;;;2.47;1.70;;;29.30;27.90;;;;;;21223728;28;20051;-71
2021/08/04 20:09:36;;;;;;;5.18;2.10;;;29.20;28.10;;;;;;21224955;27;20055;-66
2021/08/04 20:19:39;;;;;;;2.97;1.85;;;29.10;28.20;;;;;;21224568;28;20047;-69
2021/08/04 20:29:41;;;;;;;4.37;2.40;;;28.90;28.40;;;;;;21199246;28;1267033;-67
2021/08/04 20:39:44;;;;;;;3.25;2.10;;;28.70;28.50;;;;;;21245603;28;20299;-69
2021/08/04 20:49:46;;;;;;;4.55;2.40;;;28.60;28.80;;;;;;21244574;28;20043;-66
2021/08/04 20:59:52;;;;;;;4.80;3.65;;;28.50;29.10;;;;;;21245766;28;20432;-67
2021/08/04 21:09:55;;;;;;;5.97;3.95;;;28.40;29.50;;;;;;21224942;28;20078;-65
2021/08/04 21:20:01;;;;;;;5.63;3.67;;;28.20;29.70;;;;;;21246663;27;20043;-66
2021/08/04 21:30:05;;;;;;;6.35;5.47;;;28.10;30.20;;;;;;21259486;27;20061;-66
2021/08/04 21:40:11;;;;;;;4.75;3.38;;;28.10;30.20;;;;;;21258741;27;20054;-66
2021/08/04 21:50:14;;;;;;;6.30;3.55;;;28.00;30.80;;;;;;21259282;27;20130;-67
2021/08/04 22:00:19;;;;;;;10.63;7.55;;;27.90;31.10;;;;;;21256617;27;20057;-66
2021/08/04 22:10:28;;;;;;;7.88;4.57;;;27.80;30.80;;;;;;21256300;27;20055;-70
2021/08/04 22:20:30;;;;;;;3.60;2.70;;;27.60;31.30;;;;;;21255699;27;20137;-71
2021/08/04 22:30:32;;;;;;;4.47;2.97;;;27.60;30.90;;;;;;21252501;27;20058;-70
2021/08/04 22:40:38;;;;;;;7.35;3.53;;;27.50;31.40;;;;;;21254230;27;20051;-66
2021/08/04 22:50:46;;;;;;;5.50;3.38;;;27.40;31.60;;;;;;21252929;27;20064;-65
2021/08/04 23:00:47;;;;;;;4.07;3.22;;;27.30;31.30;;;;;;21251525;27;20445;-70
2021/08/04 23:10:49;;;;;;;2.72;2.38;;;27.20;31.00;;;;;;21250970;27;20047;-66
2021/08/04 23:20:50;;;;;;;;;;;27.20;29.60;;;;;;21251594;27;20384;-66
2021/08/04 23:30:51;;;;;;;5.67;1.97;;;27.00;29.20;;;;;;21241104;27;19959;-66
2021/08/04 23:40:52;;;;;;;;;;;26.90;28.40;;;;;;21185698;28;20043;-67
2021/08/04 23:50:54;;;;;;;2.80;2.10;;;26.80;28.20;;;;;;21180177;28;19920;-65
